createdAt,value
2018-08-17T00:00:07.107Z,15.17
2018-08-17T00:02:35.468Z,12.67
2018-08-17T00:05:03.871Z,14.73
2018-08-17T00:07:32.221Z,13.50
2018-08-17T00:10:00.671Z,14.83
2018-08-17T00:12:29.181Z,13.37
2018-08-17T00:14:57.578Z,14.90
2018-08-17T00:17:26.272Z,14.20
2018-08-17T00:19:54.874Z,14.10
2018-08-17T00:22:23.245Z,14.03
2018-08-17T00:24:51.794Z,13.77
2018-08-17T00:27:20.251Z,14.93
2018-08-17T00:29:48.758Z,17.47
2018-08-17T00:32:17.660Z,16.60
2018-08-17T00:34:46.293Z,17.67
2018-08-17T00:37:14.763Z,16.83
2018-08-17T00:39:43.255Z,17.13
2018-08-17T00:42:11.762Z,17.10
2018-08-17T00:44:40.342Z,17.20
2018-08-17T00:47:09.075Z,16.50
2018-08-17T00:49:37.623Z,17.40
2018-08-17T00:52:06.290Z,17.73
2018-08-17T00:54:34.735Z,18.40
2018-08-17T00:57:03.234Z,18.13
2018-08-17T00:59:31.852Z,18.47
2018-08-17T01:02:00.406Z,18.30
2018-08-17T01:04:29.124Z,17.97
2018-08-17T01:06:57.663Z,18.83
2018-08-17T01:09:26.358Z,17.80
2018-08-17T01:11:54.929Z,17.37
2018-08-17T01:14:23.486Z,17.70
2018-08-17T01:16:51.829Z,17.80
2018-08-17T01:19:20.209Z,18.00
2018-08-17T01:21:48.650Z,19.00
2018-08-17T01:24:17.002Z,21.10
2018-08-17T01:26:45.378Z,21.10
2018-08-17T01:29:13.729Z,20.30
2018-08-17T01:31:42.086Z,18.90
2018-08-17T01:34:10.487Z,18.67
2018-08-17T01:36:38.857Z,20.73
2018-08-17T01:39:08.210Z,21.10
2018-08-17T01:41:36.701Z,22.13
2018-08-17T01:44:05.139Z,24.77
2018-08-17T01:46:33.645Z,22.87
2018-08-17T01:49:02.158Z,25.60
2018-08-17T01:51:30.695Z,22.40
2018-08-17T01:53:59.142Z,22.37
2018-08-17T01:56:27.591Z,21.10
2018-08-17T01:58:55.962Z,22.10
2018-08-17T02:01:24.435Z,22.60
2018-08-17T02:03:53.005Z,19.80
2018-08-17T02:06:21.638Z,21.10
2018-08-17T02:08:50.020Z,20.60
2018-08-17T02:11:18.566Z,18.90
2018-08-17T02:13:46.950Z,19.07
2018-08-17T02:16:15.509Z,20.37
2018-08-17T02:18:44.028Z,19.37
2018-08-17T02:21:12.450Z,20.00
2018-08-17T02:23:40.996Z,20.10
2018-08-17T02:26:09.368Z,22.27
2018-08-17T02:28:37.809Z,21.33
2018-08-17T02:31:06.219Z,21.03
2018-08-17T02:33:34.611Z,21.27
2018-08-17T02:36:03.019Z,21.50
2018-08-17T02:38:31.399Z,21.13
2018-08-17T02:40:59.771Z,20.30
2018-08-17T02:43:28.075Z,21.70
2018-08-17T02:45:56.397Z,23.07
2018-08-17T02:48:24.955Z,22.90
2018-08-17T02:50:53.667Z,21.43
2018-08-17T02:53:21.990Z,21.97
2018-08-17T02:55:50.384Z,22.00
2018-08-17T02:58:18.756Z,19.63
2018-08-17T03:00:47.163Z,20.63
2018-08-17T03:03:15.551Z,22.33
2018-08-17T03:05:43.955Z,22.00
2018-08-17T03:08:12.350Z,22.20
2018-08-17T03:10:40.745Z,24.87
2018-08-17T03:13:09.083Z,23.17
2018-08-17T03:15:37.445Z,24.33
2018-08-17T03:18:05.850Z,22.80
2018-08-17T03:20:34.194Z,22.37
2018-08-17T03:23:02.535Z,25.77
2018-08-17T03:25:30.903Z,25.57
2018-08-17T03:27:59.246Z,25.40
2018-08-17T03:30:27.566Z,23.60
2018-08-17T03:32:55.931Z,24.70
2018-08-17T03:35:24.265Z,21.63
2018-08-17T03:37:52.586Z,22.23
2018-08-17T03:40:20.888Z,22.07
2018-08-17T03:42:49.203Z,21.80
2018-08-17T03:45:17.514Z,21.57
2018-08-17T03:47:45.835Z,20.50
2018-08-17T03:50:14.146Z,21.13
2018-08-17T03:52:42.458Z,24.73
2018-08-17T03:55:10.758Z,20.73
2018-08-17T03:57:39.194Z,20.67
2018-08-17T04:00:07.514Z,21.20
2018-08-17T04:02:36.082Z,22.50
2018-08-17T04:05:05.140Z,25.03
2018-08-17T04:07:33.598Z,25.03
2018-08-17T04:10:01.977Z,23.33
2018-08-17T04:12:30.287Z,24.33
2018-08-17T04:14:58.589Z,22.70
2018-08-17T04:17:26.891Z,21.80
2018-08-17T04:19:55.216Z,24.70
2018-08-17T04:22:23.574Z,25.70
2018-08-17T04:24:51.917Z,23.50
2018-08-17T04:27:20.890Z,24.50
2018-08-17T04:29:49.238Z,23.07
2018-08-17T04:32:17.587Z,22.67
2018-08-17T04:34:45.977Z,23.40
2018-08-17T04:37:14.407Z,32.20
2018-08-17T04:39:42.797Z,26.60
2018-08-17T04:42:11.141Z,27.63
2018-08-17T04:44:39.506Z,25.57
2018-08-17T04:47:08.115Z,23.83
2018-08-17T04:49:36.539Z,23.80
2018-08-17T04:52:05.054Z,25.60
2018-08-17T04:54:34.614Z,25.80
2018-08-17T04:57:03.375Z,26.33
2018-08-17T04:59:31.934Z,29.10
2018-08-17T05:02:00.646Z,27.50
2018-08-17T05:04:29.190Z,24.20
2018-08-17T05:06:57.638Z,27.17
2018-08-17T05:09:26.405Z,28.43
2018-08-17T05:11:54.778Z,27.90
2018-08-17T05:14:23.106Z,25.40
2018-08-17T05:16:51.657Z,27.00
2018-08-17T05:19:20.150Z,24.47
2018-08-17T05:21:48.583Z,27.70
2018-08-17T05:24:17.500Z,28.47
2018-08-17T05:26:45.940Z,29.57
2018-08-17T05:29:14.611Z,23.00
2018-08-17T05:31:43.009Z,24.00
2018-08-17T05:34:11.584Z,25.20
2018-08-17T05:36:40.358Z,23.83
2018-08-17T05:39:09.352Z,24.80
2018-08-17T05:41:37.810Z,26.67
2018-08-17T05:44:06.418Z,24.00
2018-08-17T05:46:34.785Z,27.90
2018-08-17T05:49:03.236Z,25.37
2018-08-17T05:51:31.827Z,27.03
2018-08-17T05:54:00.227Z,33.83
2018-08-17T05:56:28.639Z,32.20
2018-08-17T05:58:57.216Z,32.10
2018-08-17T06:01:25.549Z,34.43
2018-08-17T06:03:54.071Z,30.03
2018-08-17T06:06:22.869Z,34.47
2018-08-17T06:08:57.787Z,34.60
2018-08-17T06:11:26.287Z,30.60
2018-08-17T06:13:54.730Z,29.63
2018-08-17T06:16:23.165Z,27.93
2018-08-17T06:18:51.774Z,29.93
2018-08-17T06:21:20.153Z,27.97
2018-08-17T06:23:48.617Z,27.63
2018-08-17T06:26:17.171Z,28.20
2018-08-17T06:28:45.536Z,27.50
2018-08-17T06:31:13.901Z,25.27
2018-08-17T06:33:42.497Z,27.20
2018-08-17T06:36:10.889Z,25.83
2018-08-17T06:38:39.421Z,24.10
2018-08-17T06:41:07.786Z,22.97
2018-08-17T06:43:36.210Z,21.83
2018-08-17T06:46:04.899Z,24.30
2018-08-17T06:48:33.290Z,24.40
2018-08-17T06:51:01.807Z,24.07
2018-08-17T06:53:30.358Z,24.57
2018-08-17T06:55:58.789Z,25.23
2018-08-17T06:58:27.139Z,25.53
2018-08-17T07:00:55.465Z,24.43
2018-08-17T07:03:23.801Z,25.93
2018-08-17T07:05:52.192Z,27.23
2018-08-17T07:08:20.497Z,27.17
2018-08-17T07:10:48.788Z,25.90
2018-08-17T07:13:17.093Z,26.93
2018-08-17T07:15:45.441Z,26.07
2018-08-17T07:18:13.784Z,24.13
2018-08-17T07:20:42.121Z,24.90
2018-08-17T07:23:10.474Z,25.90
2018-08-17T07:25:38.877Z,24.00
2018-08-17T07:28:07.240Z,24.63
2018-08-17T07:30:35.570Z,22.33
2018-08-17T07:33:03.918Z,22.57
2018-08-17T07:35:32.306Z,24.60
2018-08-17T07:38:00.665Z,23.97
2018-08-17T07:40:29.072Z,21.77
2018-08-17T07:42:57.401Z,22.90
2018-08-17T07:45:25.885Z,22.07
2018-08-17T07:47:54.264Z,21.73
2018-08-17T07:50:22.690Z,22.67
2018-08-17T07:52:51.114Z,20.90
2018-08-17T07:55:19.498Z,22.37
2018-08-17T07:57:47.865Z,20.73
2018-08-17T08:00:16.175Z,21.07
2018-08-17T08:02:44.562Z,21.10
2018-08-17T08:05:12.875Z,20.73
2018-08-17T08:07:41.215Z,20.10
2018-08-17T08:10:10.666Z,20.57
2018-08-17T08:12:39.207Z,20.13
2018-08-17T08:15:07.794Z,20.17
2018-08-17T08:17:36.406Z,19.97
2018-08-17T08:20:16.258Z,19.27
2018-08-17T08:22:44.545Z,21.40
2018-08-17T08:25:12.867Z,20.17
2018-08-17T08:27:41.206Z,19.20
2018-08-17T08:30:09.526Z,22.00
2018-08-17T08:32:37.894Z,21.40
2018-08-17T08:35:07.141Z,21.87
2018-08-17T08:37:35.635Z,23.30
2018-08-17T08:40:04.379Z,22.20
2018-08-17T08:42:32.819Z,23.50
2018-08-17T08:45:01.178Z,24.20
2018-08-17T08:47:29.576Z,22.50
2018-08-17T08:49:57.919Z,22.80
2018-08-17T08:52:26.326Z,23.40
2018-08-17T08:54:54.751Z,24.17
2018-08-17T08:57:23.124Z,22.73
2018-08-17T08:59:51.501Z,24.37
2018-08-17T09:02:19.910Z,28.03
2018-08-17T09:04:48.315Z,29.80
2018-08-17T09:07:16.734Z,29.40
2018-08-17T09:09:45.194Z,26.87
2018-08-17T09:12:13.698Z,28.77
2018-08-17T09:14:42.110Z,27.90
2018-08-17T09:17:10.590Z,28.47
2018-08-17T09:19:39.109Z,26.93
2018-08-17T09:22:07.610Z,26.17
2018-08-17T09:24:37.154Z,22.77
2018-08-17T09:27:05.889Z,23.40
2018-08-17T09:29:34.253Z,20.10
2018-08-17T09:32:02.739Z,20.17
2018-08-17T09:34:31.271Z,19.30
2018-08-17T09:36:59.791Z,19.70
2018-08-17T09:39:28.608Z,17.07
2018-08-17T09:41:57.140Z,15.07
2018-08-17T09:44:25.834Z,15.10
2018-08-17T09:46:54.281Z,17.10
2018-08-17T09:49:22.684Z,19.70
2018-08-17T09:51:51.096Z,18.80
2018-08-17T09:54:19.583Z,18.53
2018-08-17T09:56:48.046Z,19.50
2018-08-17T09:59:16.554Z,20.17
2018-08-17T10:01:51.370Z,20.17
2018-08-17T10:04:25.081Z,20.70
2018-08-17T10:06:58.981Z,20.40
2018-08-17T10:09:32.963Z,21.87
2018-08-17T10:12:01.502Z,20.80
2018-08-17T10:14:31.212Z,20.33
2018-08-17T10:16:59.877Z,20.83
2018-08-17T10:19:28.562Z,20.77
2018-08-17T10:21:57.500Z,18.07
2018-08-17T10:24:25.920Z,18.20
2018-08-17T10:26:55.044Z,18.53
2018-08-17T10:29:23.663Z,19.97
2018-08-17T10:31:52.086Z,18.73
2018-08-17T10:34:20.636Z,19.80
2018-08-17T10:36:49.060Z,20.53
2018-08-17T10:39:17.424Z,18.70
2018-08-17T10:41:45.821Z,20.53
2018-08-17T10:44:14.166Z,20.10
2018-08-17T10:46:42.875Z,19.90
2018-08-17T10:49:11.539Z,19.03
2018-08-17T10:51:40.178Z,17.87
2018-08-17T10:54:08.738Z,18.40
2018-08-17T10:56:37.193Z,17.20
2018-08-17T10:59:05.620Z,16.20
2018-08-17T11:01:33.967Z,16.77
2018-08-17T11:04:02.283Z,18.13
2018-08-17T11:06:30.803Z,18.60
2018-08-17T11:08:59.475Z,17.30
2018-08-17T11:11:27.857Z,18.33
2018-08-17T11:13:56.294Z,17.63
2018-08-17T11:16:24.610Z,18.37
2018-08-17T11:18:54.195Z,15.80
2018-08-17T11:21:22.510Z,17.30
2018-08-17T11:23:50.818Z,15.90
2018-08-17T11:26:25.473Z,16.93
2018-08-17T11:28:53.860Z,14.70
2018-08-17T11:31:22.223Z,18.87
2018-08-17T11:33:50.590Z,17.00
2018-08-17T11:36:22.562Z,16.23
2018-08-17T11:38:50.991Z,16.13
2018-08-17T11:41:19.702Z,13.27
2018-08-17T11:43:48.299Z,14.67
2018-08-17T11:46:16.622Z,15.70
2018-08-17T11:48:45.110Z,14.80
2018-08-17T11:51:13.603Z,14.10
2018-08-17T11:53:46.480Z,13.03
2018-08-17T11:56:14.915Z,12.97
2018-08-17T11:58:43.588Z,13.50
2018-08-17T12:01:17.977Z,13.63
2018-08-17T12:03:46.418Z,12.03
2018-08-17T12:06:15.328Z,13.13
2018-08-17T12:08:44.030Z,9.87
2018-08-17T12:11:12.407Z,9.20
2018-08-17T12:13:40.727Z,7.13
2018-08-17T12:16:12.459Z,8.83
2018-08-17T12:18:41.070Z,9.30
2018-08-17T12:21:09.687Z,7.90
2018-08-17T12:23:39.030Z,7.37
2018-08-17T12:26:07.377Z,8.27
2018-08-17T12:28:35.694Z,9.47
2018-08-17T12:31:04.041Z,9.37
2018-08-17T12:33:32.680Z,8.47
2018-08-17T12:36:01.033Z,7.33
2018-08-17T12:38:29.418Z,7.47
2018-08-17T12:40:58.521Z,7.13
2018-08-17T12:43:30.331Z,9.80
2018-08-17T12:45:58.864Z,10.27
2018-08-17T12:48:27.418Z,9.43
2018-08-17T12:51:00.439Z,9.10
2018-08-17T12:53:29.276Z,8.90
2018-08-17T12:55:57.987Z,9.00
2018-08-17T12:58:26.472Z,7.90
2018-08-17T13:00:55.029Z,9.00
2018-08-17T13:03:24.000Z,8.30
2018-08-17T13:05:52.748Z,7.50
2018-08-17T13:08:21.960Z,9.93
2018-08-17T13:10:51.100Z,7.70
2018-08-17T13:13:19.672Z,6.40
2018-08-17T13:15:53.593Z,6.13
2018-08-17T13:18:22.606Z,8.50
2018-08-17T13:20:51.372Z,11.97
2018-08-17T13:23:20.306Z,11.80
2018-08-17T13:25:49.075Z,10.57
2018-08-17T13:28:17.567Z,9.30
2018-08-17T13:30:46.916Z,9.37
2018-08-17T13:33:15.445Z,9.30
2018-08-17T13:35:43.802Z,7.80
2018-08-17T13:38:12.342Z,6.00
2018-08-17T13:40:40.814Z,6.80
2018-08-17T13:43:09.342Z,7.07
2018-08-17T13:45:37.996Z,6.47
2018-08-17T13:48:06.705Z,5.83
2018-08-17T13:50:35.258Z,6.03
2018-08-17T13:53:04.080Z,7.60
2018-08-17T13:55:32.828Z,7.00
2018-08-17T13:58:01.611Z,8.50
2018-08-17T14:00:30.189Z,8.10
2018-08-17T14:02:58.849Z,7.80
2018-08-17T14:05:27.390Z,7.63
2018-08-17T14:07:56.057Z,9.00
2018-08-17T14:10:24.547Z,9.80
2018-08-17T14:12:52.990Z,8.27
2018-08-17T14:15:22.667Z,10.30
2018-08-17T14:17:51.175Z,11.37
2018-08-17T14:20:19.632Z,10.63
2018-08-17T14:22:48.030Z,12.53
2018-08-17T14:25:16.392Z,12.10
2018-08-17T14:27:44.855Z,12.23
2018-08-17T14:30:16.890Z,11.63
2018-08-17T14:32:45.424Z,12.63
2018-08-17T14:35:14.484Z,12.43
2018-08-17T14:37:42.758Z,13.27
2018-08-17T14:40:11.483Z,12.83
2018-08-17T14:42:40.317Z,12.00
2018-08-17T14:45:09.566Z,13.60
2018-08-17T14:47:38.198Z,12.00
2018-08-17T14:50:11.837Z,11.17
2018-08-17T14:52:40.285Z,12.53
2018-08-17T14:55:09.184Z,12.97
2018-08-17T14:57:38.546Z,12.20
2018-08-17T15:00:11.345Z,13.93
2018-08-17T15:02:40.448Z,13.90
2018-08-17T15:05:10.786Z,11.80
2018-08-17T15:07:39.518Z,12.93
2018-08-17T15:10:09.038Z,12.43
2018-08-17T15:12:37.560Z,12.33
2018-08-17T15:15:06.364Z,13.40
2018-08-17T15:17:34.884Z,13.87
2018-08-17T15:20:03.578Z,14.30
2018-08-17T15:22:32.327Z,13.80
2018-08-17T15:25:00.720Z,13.87
2018-08-17T15:27:29.215Z,15.07
2018-08-17T15:29:57.772Z,13.00
2018-08-17T15:32:26.319Z,12.70
2018-08-17T15:34:55.367Z,14.90
2018-08-17T15:37:23.702Z,14.07
2018-08-17T15:39:52.046Z,13.80
2018-08-17T15:42:20.369Z,15.30
2018-08-17T15:44:48.962Z,15.40
2018-08-17T15:47:17.391Z,17.63
2018-08-17T15:50:03.060Z,16.40
2018-08-17T15:52:32.187Z,17.80
2018-08-17T15:55:01.427Z,17.23
2018-08-17T15:57:30.079Z,18.10
2018-08-17T15:59:58.742Z,21.00
2018-08-17T16:02:27.990Z,21.33
2018-08-17T16:04:56.553Z,23.70
2018-08-17T16:07:24.908Z,23.90
2018-08-17T16:09:54.847Z,21.40
2018-08-17T16:12:23.520Z,25.63
2018-08-17T16:14:51.963Z,23.50
2018-08-17T16:17:20.464Z,26.43
2018-08-17T16:19:49.146Z,28.10
2018-08-17T16:22:17.514Z,27.93
2018-08-17T16:24:46.290Z,28.87
2018-08-17T16:27:14.734Z,27.13
2018-08-17T16:29:43.155Z,26.80
2018-08-17T16:32:11.779Z,27.80
2018-08-17T16:34:40.170Z,26.10
2018-08-17T16:37:08.665Z,27.30
2018-08-17T16:39:43.499Z,28.57
2018-08-17T16:42:15.019Z,28.00
2018-08-17T16:44:43.511Z,25.10
2018-08-17T16:47:11.962Z,25.93
2018-08-17T16:49:40.415Z,27.77
2018-08-17T16:52:09.010Z,28.23
2018-08-17T16:54:37.555Z,27.50
2018-08-17T16:57:06.007Z,28.17
2018-08-17T16:59:34.442Z,27.13
2018-08-17T17:02:02.940Z,27.80
2018-08-17T17:04:36.988Z,26.67
2018-08-17T17:07:05.621Z,28.23
2018-08-17T17:09:34.046Z,27.77
2018-08-17T17:12:02.558Z,28.27
2018-08-17T17:14:30.978Z,26.20
2018-08-17T17:16:59.553Z,29.40
2018-08-17T17:19:28.060Z,28.67
2018-08-17T17:21:56.530Z,28.70
2018-08-17T17:24:25.030Z,29.70
2018-08-17T17:26:53.823Z,28.30
2018-08-17T17:29:23.425Z,28.93
2018-08-17T17:31:52.260Z,29.23
2018-08-17T17:34:20.849Z,27.93
2018-08-17T17:36:49.370Z,30.03
2018-08-17T17:39:17.834Z,32.93
2018-08-17T17:41:46.381Z,30.60
2018-08-17T17:44:14.878Z,32.13
2018-08-17T17:46:43.396Z,30.13
2018-08-17T17:49:12.048Z,29.90
2018-08-17T17:51:40.472Z,30.40
2018-08-17T17:54:09.031Z,27.83
2018-08-17T17:56:37.474Z,30.50
2018-08-17T17:59:14.444Z,27.47
2018-08-17T18:01:43.082Z,27.67
2018-08-17T18:04:11.580Z,27.57
2018-08-17T18:06:40.109Z,26.70
2018-08-17T18:09:08.550Z,25.27
2018-08-17T18:11:37.089Z,27.83
2018-08-17T18:14:05.570Z,25.27
2018-08-17T18:16:34.832Z,25.60
2018-08-17T18:19:03.234Z,25.60
2018-08-17T18:21:33.281Z,25.23
2018-08-17T18:24:07.148Z,25.07
2018-08-17T18:26:35.871Z,26.10
2018-08-17T18:29:04.436Z,24.63
2018-08-17T18:31:33.073Z,25.90
2018-08-17T18:34:01.886Z,23.87
2018-08-17T18:36:30.784Z,25.50
2018-08-17T18:38:59.491Z,26.93
2018-08-17T18:41:28.285Z,24.30
2018-08-17T18:43:57.161Z,23.17
2018-08-17T18:46:27.244Z,24.30
2018-08-17T18:48:55.829Z,24.87
2018-08-17T18:51:24.354Z,23.87
2018-08-17T18:53:53.203Z,22.37
2018-08-17T18:56:21.929Z,21.60
2018-08-17T18:58:50.577Z,21.43
2018-08-17T19:01:19.277Z,20.63
2018-08-17T19:03:47.939Z,20.60
2018-08-17T19:06:16.385Z,19.30
2018-08-17T19:08:45.074Z,17.23
2018-08-17T19:11:13.710Z,14.43
2018-08-17T19:13:42.288Z,12.93
2018-08-17T19:16:10.969Z,13.80
2018-08-17T19:18:39.791Z,13.60
2018-08-17T19:21:10.621Z,11.57
2018-08-17T19:23:39.245Z,11.40
2018-08-17T19:26:08.726Z,12.00
2018-08-17T19:28:37.166Z,11.97
2018-08-17T19:31:05.786Z,11.63
2018-08-17T19:33:34.379Z,11.80
2018-08-17T19:36:03.606Z,12.90
2018-08-17T19:38:41.636Z,10.70
2018-08-17T19:41:10.115Z,11.20
2018-08-17T19:43:38.978Z,11.90
2018-08-17T19:46:07.538Z,10.17
2018-08-17T19:48:35.959Z,10.90
2018-08-17T19:51:09.935Z,9.70
2018-08-17T19:53:38.271Z,9.77
2018-08-17T19:56:06.678Z,11.13
2018-08-17T19:58:35.000Z,11.27
2018-08-17T20:01:03.375Z,9.87
2018-08-17T20:03:32.045Z,10.00
2018-08-17T20:06:00.535Z,11.03
2018-08-17T20:08:29.277Z,8.63
2018-08-17T20:10:57.654Z,8.67
2018-08-17T20:13:26.211Z,8.20
2018-08-17T20:15:54.702Z,8.43
2018-08-17T20:18:25.150Z,8.37
2018-08-17T20:20:53.497Z,9.20
2018-08-17T20:23:21.860Z,8.83
2018-08-17T20:25:50.297Z,8.20
2018-08-17T20:28:18.551Z,8.10
2018-08-17T20:30:46.918Z,8.67
2018-08-17T20:33:21.487Z,8.60
2018-08-17T20:35:50.386Z,7.50
2018-08-17T20:38:18.726Z,7.20
2018-08-17T20:40:47.411Z,7.80
2018-08-17T20:43:15.965Z,6.77
2018-08-17T20:45:44.601Z,7.27
2018-08-17T20:48:12.963Z,7.60
2018-08-17T20:50:42.448Z,7.47
2018-08-17T20:53:13.201Z,6.00
2018-08-17T20:55:41.827Z,7.20
2018-08-17T20:58:10.178Z,7.47
2018-08-17T21:00:38.963Z,7.20
2018-08-17T21:03:07.490Z,7.10
2018-08-17T21:05:35.964Z,6.07
2018-08-17T21:08:04.423Z,6.20
2018-08-17T21:10:33.140Z,5.93
2018-08-17T21:13:01.726Z,6.00
2018-08-17T21:15:30.056Z,5.90
2018-08-17T21:17:58.493Z,6.20
2018-08-17T21:20:27.221Z,6.37
2018-08-17T21:22:55.796Z,5.67
2018-08-17T21:25:24.095Z,5.47
2018-08-17T21:27:52.398Z,5.50
2018-08-17T21:30:20.836Z,5.17
2018-08-17T21:32:49.146Z,5.60
2018-08-17T21:35:17.481Z,6.17
2018-08-17T21:37:45.795Z,5.47
2018-08-17T21:40:20.605Z,5.57
2018-08-17T21:42:48.907Z,5.10
2018-08-17T21:45:17.431Z,5.70
2018-08-17T21:47:45.936Z,6.27
2018-08-17T21:50:16.368Z,4.90
2018-08-17T21:52:45.313Z,5.13
2018-08-17T21:55:14.175Z,6.20
2018-08-17T21:57:42.985Z,5.77
2018-08-17T22:00:28.692Z,5.63
2018-08-17T22:02:57.074Z,5.10
2018-08-17T22:05:28.263Z,5.60
2018-08-17T22:07:56.642Z,4.90
2018-08-17T22:10:25.021Z,4.90
2018-08-17T22:12:54.377Z,5.20
2018-08-17T22:17:59.162Z,5.07
2018-08-17T22:20:27.497Z,4.20
2018-08-17T22:22:55.979Z,4.77
2018-08-17T22:25:24.292Z,5.10
2018-08-17T22:27:52.637Z,4.60
2018-08-17T22:30:22.730Z,4.83
2018-08-17T22:32:51.645Z,5.30
2018-08-17T22:35:20.077Z,4.40
2018-08-17T22:37:48.501Z,4.80
2018-08-17T22:40:16.889Z,5.27
2018-08-17T22:42:46.945Z,5.37
2018-08-17T22:45:15.177Z,4.60
2018-08-17T22:47:43.489Z,4.40
2018-08-17T22:50:12.091Z,5.00
2018-08-17T22:52:40.520Z,5.13
2018-08-17T22:55:09.456Z,5.33
2018-08-17T22:57:37.778Z,5.10
2018-08-17T23:00:20.530Z,4.37
2018-08-17T23:02:50.307Z,4.60
2018-08-17T23:05:20.217Z,4.50
2018-08-17T23:07:48.543Z,4.53
2018-08-17T23:10:18.291Z,5.20
2018-08-17T23:12:47.736Z,5.20
2018-08-17T23:15:16.235Z,5.87
2018-08-17T23:17:49.223Z,5.10
2018-08-17T23:20:21.819Z,4.83
2018-08-17T23:22:52.295Z,5.53
2018-08-17T23:25:20.620Z,4.50
2018-08-17T23:27:49.584Z,4.20
2018-08-17T23:30:17.909Z,5.50
2018-08-17T23:32:46.491Z,5.90
2018-08-17T23:35:14.863Z,4.70
2018-08-17T23:37:43.420Z,7.00
2018-08-17T23:40:11.904Z,4.70
2018-08-17T23:42:40.433Z,4.00
2018-08-17T23:45:11.022Z,4.80
2018-08-17T23:47:39.451Z,5.20
2018-08-17T23:50:09.294Z,5.30
2018-08-17T23:52:37.635Z,5.03
2018-08-17T23:55:06.502Z,6.70
2018-08-17T23:57:35.364Z,5.90
